Time;durP1;ratioP1;P1;durP2;ratioP2;P2;SDS_P1;SDS_P2;PMS_P1;PMS_P2;Temp;Humidity;BMP_temperature;BMP_pressure;BME280_temperature;BME280_humidity;BME280_pressure;Samples;Min_cycle;Max_cycle;Signal;HPM_P1;HPM_P2
2022/01/06 00:01:46;;;;;;;7.10;1.63;;;;;;;;;;5071648;28;20028;-61
2022/01/06 00:04:11;;;;;;;5.18;1.70;;;;;;;;;;5072643;28;20442;-60
2022/01/06 00:06:40;;;;;;;5.88;1.38;;;;;;;;;;5072358;28;20060;-60
2022/01/06 00:09:07;;;;;;;7.38;1.50;;;;;;;;;;5072020;28;20126;-60
2022/01/06 00:11:32;;;;;;;8.32;2.00;;;;;;;;;;5072485;28;20029;-60
2022/01/06 00:14:11;;;;;;;9.10;1.40;;;;;;;;;;5072488;28;20523;-60
2022/01/06 00:16:56;;;;;;;10.93;1.33;;;;;;;;;;5072106;28;20021;-60
2022/01/06 00:24:49;;;;;;;5.38;1.60;;;;;;;;;;5070704;28;20043;-60
2022/01/06 00:27:14;;;;;;;8.80;1.52;;;;;;;;;;5072401;28;20045;-60
2022/01/06 00:29:40;;;;;;;8.07;1.95;;;;;;;;;;5072176;28;20048;-60
2022/01/06 00:32:05;;;;;;;6.30;1.73;;;;;;;;;;5072506;28;20127;-60
2022/01/06 00:34:31;;;;;;;5.38;1.45;;;;;;;;;;5072920;28;20020;-60
2022/01/06 00:36:56;;;;;;;6.00;1.88;;;;;;;;;;5072430;28;20789;-58
2022/01/06 00:39:26;;;;;;;8.45;1.70;;;;;;;;;;5072362;28;20020;-60
2022/01/06 00:41:55;;;;;;;7.95;1.58;;;;;;;;;;5072393;28;20024;-60
2022/01/06 00:44:20;;;;;;;6.10;1.38;;;;;;;;;;5072415;28;20123;-59
2022/01/06 00:46:45;;;;;;;5.28;1.17;;;;;;;;;;5072763;28;20099;-59
2022/01/06 00:49:11;;;;;;;6.93;1.10;;;;;;;;;;5072655;28;20366;-59
2022/01/06 00:51:36;;;;;;;7.13;1.60;;;;;;;;;;5072441;28;20031;-60
2022/01/06 00:54:01;;;;;;;8.00;1.73;;;;;;;;;;5070319;28;20039;-60
2022/01/06 00:56:26;;;;;;;5.32;1.80;;;;;;;;;;5072179;28;20082;-60
2022/01/06 00:58:52;;;;;;;7.18;1.60;;;;;;;;;;5072127;28;20023;-59
2022/01/06 01:01:17;;;;;;;5.18;1.48;;;;;;;;;;5072539;28;20028;-60
2022/01/06 01:03:42;;;;;;;6.28;1.63;;;;;;;;;;5072228;28;20025;-60
2022/01/06 01:06:07;;;;;;;7.22;1.55;;;;;;;;;;5072154;28;20492;-60
2022/01/06 01:08:34;;;;;;;6.00;1.38;;;;;;;;;;5072196;28;20035;-59
2022/01/06 01:10:59;;;;;;;6.45;1.52;;;;;;;;;;5072198;28;20150;-59
2022/01/06 01:13:28;;;;;;;4.32;0.90;;;;;;;;;;5072528;28;20048;-59
2022/01/06 01:15:56;;;;;;;4.03;1.40;;;;;;;;;;5072061;28;20063;-59
2022/01/06 01:18:22;;;;;;;5.18;1.33;;;;;;;;;;5072286;28;20101;-60
2022/01/06 01:20:49;;;;;;;3.22;1.13;;;;;;;;;;5069366;28;20059;-60
2022/01/06 01:23:14;;;;;;;6.65;0.90;;;;;;;;;;5071890;28;20032;-60
2022/01/06 01:25:39;;;;;;;9.40;1.40;;;;;;;;;;5072392;28;20031;-60
2022/01/06 01:28:05;;;;;;;9.45;1.67;;;;;;;;;;5071924;28;20037;-59
2022/01/06 01:30:38;;;;;;;6.72;1.70;;;;;;;;;;5070871;28;20452;-60
2022/01/06 01:33:05;;;;;;;7.15;1.10;;;;;;;;;;5072123;28;20486;-60
2022/01/06 01:35:32;;;;;;;7.60;1.77;;;;;;;;;;5072069;28;20032;-60
2022/01/06 01:37:58;;;;;;;5.30;1.38;;;;;;;;;;5071842;28;20460;-59
2022/01/06 01:40:23;;;;;;;3.72;1.00;;;;;;;;;;5072347;28;20036;-59
2022/01/06 01:42:48;;;;;;;4.63;1.35;;;;;;;;;;5071787;28;20119;-59
2022/01/06 01:45:14;;;;;;;8.00;1.30;;;;;;;;;;5071718;28;20044;-59
2022/01/06 01:47:45;;;;;;;3.95;1.17;;;;;;;;;;5071892;28;20028;-59
2022/01/06 01:50:13;;;;;;;7.22;1.30;;;;;;;;;;5069618;28;20032;-59
2022/01/06 01:52:45;;;;;;;7.30;1.10;;;;;;;;;;5072248;28;20381;-59
2022/01/06 01:55:12;;;;;;;4.85;1.27;;;;;;;;;;5069297;28;20040;-60
2022/01/06 01:57:38;;;;;;;5.18;1.13;;;;;;;;;;5071640;28;20029;-59
2022/01/06 02:00:08;;;;;;;7.95;1.52;;;;;;;;;;5071420;28;20508;-59
2022/01/06 02:02:33;;;;;;;3.95;1.13;;;;;;;;;;5069475;28;20029;-59
2022/01/06 02:04:59;;;;;;;6.22;1.52;;;;;;;;;;5071698;28;20028;-59
2022/01/06 02:07:25;;;;;;;4.53;1.20;;;;;;;;;;5072159;28;20058;-60
2022/01/06 02:09:50;;;;;;;5.78;1.40;;;;;;;;;;5071721;28;20102;-59
2022/01/06 02:12:42;;;;;;;4.38;1.00;;;;;;;;;;5071931;28;20098;-59
2022/01/06 02:15:09;;;;;;;5.93;1.27;;;;;;;;;;5069350;28;20052;-59
2022/01/06 02:17:34;;;;;;;5.47;1.25;;;;;;;;;;5072096;28;20039;-59
2022/01/06 02:20:00;;;;;;;4.60;1.42;;;;;;;;;;5071992;28;20108;-60
2022/01/06 02:22:26;;;;;;;6.63;1.23;;;;;;;;;;5072380;28;20090;-60
2022/01/06 02:24:51;;;;;;;4.43;1.48;;;;;;;;;;5072211;28;20091;-60
2022/01/06 02:27:20;;;;;;;5.28;1.40;;;;;;;;;;5075363;28;20056;-60
2022/01/06 02:29:45;;;;;;;6.72;1.60;;;;;;;;;;5075234;28;20055;-60
2022/01/06 02:32:14;;;;;;;6.40;1.13;;;;;;;;;;5075093;28;20031;-60
2022/01/06 02:34:39;;;;;;;3.58;1.10;;;;;;;;;;5076197;28;20033;-60
2022/01/06 02:37:04;;;;;;;6.15;1.13;;;;;;;;;;5075636;28;20495;-60
2022/01/06 02:39:30;;;;;;;2.97;1.10;;;;;;;;;;5075216;28;20044;-61
2022/01/06 02:41:55;;;;;;;5.30;2.03;;;;;;;;;;5075109;28;20040;-60
2022/01/06 02:44:23;;;;;;;7.22;1.58;;;;;;;;;;5075363;28;20119;-60
2022/01/06 02:46:48;;;;;;;5.63;1.50;;;;;;;;;;5074985;28;20025;-59
2022/01/06 02:49:14;;;;;;;3.78;1.30;;;;;;;;;;5075506;28;20029;-59
2022/01/06 02:51:40;;;;;;;4.00;0.95;;;;;;;;;;5075224;28;20077;-59
2022/01/06 02:54:05;;;;;;;8.95;2.13;;;;;;;;;;5074856;28;20504;-59
2022/01/06 02:56:32;;;;;;;6.32;1.25;;;;;;;;;;5074851;28;20043;-61
2022/01/06 02:58:57;;;;;;;3.03;1.40;;;;;;;;;;5075481;28;20029;-60
2022/01/06 03:01:22;;;;;;;5.70;1.60;;;;;;;;;;5075339;28;20039;-60
2022/01/06 03:03:47;;;;;;;5.38;1.25;;;;;;;;;;5074881;28;20036;-60
2022/01/06 03:06:13;;;;;;;5.60;1.15;;;;;;;;;;5075016;28;20033;-59
2022/01/06 03:08:38;;;;;;;4.57;1.55;;;;;;;;;;5074899;28;20037;-60
2022/01/06 03:11:03;;;;;;;3.35;1.00;;;;;;;;;;5069619;28;20033;-60
2022/01/06 03:13:28;;;;;;;4.63;1.05;;;;;;;;;;5054801;28;20355;-59
2022/01/06 03:15:54;;;;;;;6.97;1.85;;;;;;;;;;5054409;28;20048;-60
2022/01/06 03:18:19;;;;;;;7.90;1.30;;;;;;;;;;5054784;28;20036;-60
2022/01/06 03:20:44;;;;;;;6.38;1.17;;;;;;;;;;5054342;28;20029;-60
2022/01/06 03:23:09;;;;;;;5.82;1.60;;;;;;;;;;5054096;28;20052;-61
2022/01/06 03:25:34;;;;;;;4.93;1.35;;;;;;;;;;5054873;28;20111;-60
2022/01/06 03:28:01;;;;;;;6.25;1.15;;;;;;;;;;5069858;28;20115;-60
2022/01/06 03:30:26;;;;;;;3.42;1.15;;;;;;;;;;5072054;28;20466;-60
2022/01/06 03:32:52;;;;;;;11.00;1.50;;;;;;;;;;5074248;28;20055;-60
2022/01/06 03:35:19;;;;;;;4.03;1.58;;;;;;;;;;5072970;28;20059;-60
2022/01/06 03:37:44;;;;;;;2.83;1.00;;;;;;;;;;5073443;28;20032;-60
2022/01/06 03:40:10;;;;;;;3.78;1.23;;;;;;;;;;5074485;28;20039;-60
2022/01/06 03:42:36;;;;;;;3.25;0.75;;;;;;;;;;5074048;28;20051;-60
2022/01/06 03:45:02;;;;;;;4.90;1.15;;;;;;;;;;5074082;28;20043;-60
2022/01/06 03:47:27;;;;;;;3.53;0.93;;;;;;;;;;5073579;28;20037;-60
2022/01/06 03:49:52;;;;;;;5.22;1.00;;;;;;;;;;5073987;28;20024;-60
2022/01/06 03:52:17;;;;;;;4.88;1.00;;;;;;;;;;5073720;28;20108;-60
2022/01/06 03:54:43;;;;;;;6.25;1.92;;;;;;;;;;5073736;28;20056;-60
2022/01/06 03:57:08;;;;;;;5.35;1.60;;;;;;;;;;5072648;28;20037;-61
2022/01/06 03:59:34;;;;;;;5.78;1.23;;;;;;;;;;5073632;28;20497;-60
2022/01/06 04:01:59;;;;;;;8.32;1.63;;;;;;;;;;5074042;28;20016;-61
2022/01/06 04:04:24;;;;;;;7.38;1.85;;;;;;;;;;5074276;28;20027;-60
2022/01/06 04:06:49;;;;;;;3.85;0.82;;;;;;;;;;5073665;28;20033;-61
2022/01/06 04:09:14;;;;;;;5.72;1.13;;;;;;;;;;5073645;28;20036;-60
2022/01/06 04:11:40;;;;;;;6.05;1.92;;;;;;;;;;5059041;28;20040;-60
2022/01/06 04:14:05;;;;;;;3.55;1.02;;;;;;;;;;5053353;28;20052;-60
2022/01/06 04:16:34;;;;;;;5.05;1.08;;;;;;;;;;5053727;28;20029;-60
2022/01/06 04:18:59;;;;;;;6.47;1.17;;;;;;;;;;5052974;28;20031;-61
2022/01/06 04:21:24;;;;;;;7.30;1.77;;;;;;;;;;5052731;28;20124;-61
2022/01/06 04:23:50;;;;;;;6.45;1.27;;;;;;;;;;5052582;28;20113;-60
2022/01/06 04:26:15;;;;;;;5.38;1.55;;;;;;;;;;5052987;28;20033;-60
2022/01/06 04:28:41;;;;;;;3.80;1.08;;;;;;;;;;5056429;28;20016;-60
2022/01/06 04:31:06;;;;;;;4.10;1.65;;;;;;;;;;5072619;28;20045;-61
2022/01/06 04:33:33;;;;;;;5.07;1.30;;;;;;;;;;5073036;28;20107;-60
2022/01/06 04:35:58;;;;;;;3.40;1.15;;;;;;;;;;5073140;28;20039;-60
2022/01/06 04:38:23;;;;;;;7.97;1.95;;;;;;;;;;5073156;28;20024;-60
2022/01/06 04:40:49;;;;;;;6.07;1.30;;;;;;;;;;5072801;28;20476;-59
2022/01/06 04:43:14;;;;;;;4.75;1.23;;;;;;;;;;5073184;28;20025;-60
2022/01/06 04:45:39;;;;;;;8.93;1.58;;;;;;;;;;5072863;28;20060;-60
2022/01/06 04:48:04;;;;;;;6.15;1.50;;;;;;;;;;5072359;28;20029;-60
2022/01/06 04:50:29;;;;;;;5.82;1.20;;;;;;;;;;5072820;28;20456;-60
2022/01/06 04:52:55;;;;;;;5.60;1.13;;;;;;;;;;5072315;28;20100;-60
2022/01/06 04:55:20;;;;;;;7.07;2.08;;;;;;;;;;5073249;28;20020;-60
2022/01/06 04:57:45;;;;;;;7.32;1.23;;;;;;;;;;5072656;28;20037;-60
2022/01/06 05:00:10;;;;;;;3.00;0.85;;;;;;;;;;5072742;28;20523;-60
2022/01/06 05:02:36;;;;;;;5.72;1.45;;;;;;;;;;5055172;28;20498;-60
2022/01/06 05:05:01;;;;;;;5.13;1.20;;;;;;;;;;5051154;28;20013;-59
2022/01/06 05:07:26;;;;;;;4.78;1.25;;;;;;;;;;5052499;28;20036;-59
2022/01/06 05:09:51;;;;;;;5.40;1.10;;;;;;;;;;5067228;28;20033;-60
2022/01/06 05:12:17;;;;;;;4.10;0.88;;;;;;;;;;5071046;28;20028;-60
2022/01/06 05:14:42;;;;;;;2.83;0.95;;;;;;;;;;5071894;28;20083;-60
2022/01/06 05:17:08;;;;;;;5.47;1.20;;;;;;;;;;5071907;28;20040;-59
2022/01/06 05:19:33;;;;;;;5.70;1.00;;;;;;;;;;5072922;28;20099;-60
2022/01/06 05:21:59;;;;;;;5.05;1.45;;;;;;;;;;5070843;28;20025;-59
2022/01/06 05:24:24;;;;;;;3.80;1.08;;;;;;;;;;5072365;28;20031;-59
2022/01/06 05:26:50;;;;;;;4.57;1.38;;;;;;;;;;5072401;28;20564;-60
2022/01/06 05:29:15;;;;;;;3.70;1.00;;;;;;;;;;5072054;28;20113;-60
2022/01/06 05:31:41;;;;;;;5.70;1.13;;;;;;;;;;5072392;28;20021;-60
2022/01/06 05:34:06;;;;;;;6.28;1.30;;;;;;;;;;5072174;28;20057;-60
2022/01/06 05:36:32;;;;;;;1.80;0.77;;;;;;;;;;5072300;28;20182;-61
2022/01/06 05:38:57;;;;;;;3.97;0.93;;;;;;;;;;5072613;28;20037;-60
2022/01/06 05:41:23;;;;;;;4.15;1.10;;;;;;;;;;5072141;28;20512;-60
2022/01/06 05:43:48;;;;;;;3.13;1.00;;;;;;;;;;5071707;28;20032;-60
2022/01/06 05:46:13;;;;;;;3.75;0.95;;;;;;;;;;5072972;28;20024;-60
2022/01/06 05:48:39;;;;;;;3.80;1.00;;;;;;;;;;5072205;28;20072;-60
2022/01/06 05:51:04;;;;;;;6.40;0.95;;;;;;;;;;5072177;28;20025;-60
2022/01/06 05:53:30;;;;;;;6.03;0.93;;;;;;;;;;5071899;28;20028;-60
2022/01/06 05:55:55;;;;;;;6.03;1.23;;;;;;;;;;5072318;28;20404;-60
2022/01/06 05:58:20;;;;;;;3.15;0.90;;;;;;;;;;5072570;28;20040;-60
2022/01/06 06:00:45;;;;;;;3.30;0.80;;;;;;;;;;5073629;28;20044;-60
2022/01/06 06:03:11;;;;;;;4.35;0.88;;;;;;;;;;5075307;28;20040;-59
2022/01/06 06:05:36;;;;;;;2.88;0.80;;;;;;;;;;5075877;28;20040;-60
2022/01/06 06:08:01;;;;;;;3.75;1.20;;;;;;;;;;5075949;28;20542;-59
2022/01/06 06:10:26;;;;;;;3.90;0.85;;;;;;;;;;5076253;28;20017;-59
2022/01/06 06:12:53;;;;;;;4.20;0.95;;;;;;;;;;5075411;28;20029;-60
2022/01/06 06:15:21;;;;;;;4.30;1.45;;;;;;;;;;5075629;28;20496;-59
2022/01/06 06:17:46;;;;;;;6.28;2.25;;;;;;;;;;5075365;28;20426;-59
2022/01/06 06:20:11;;;;;;;2.92;0.75;;;;;;;;;;5075873;28;20051;-59
2022/01/06 06:22:37;;;;;;;3.28;0.40;;;;;;;;;;5074426;28;20033;-60
2022/01/06 06:25:02;;;;;;;3.88;0.88;;;;;;;;;;5074090;28;20404;-59
2022/01/06 06:27:27;;;;;;;2.50;0.70;;;;;;;;;;5075573;28;20028;-60
2022/01/06 06:29:53;;;;;;;3.17;0.82;;;;;;;;;;5075289;28;20048;-60
2022/01/06 06:32:18;;;;;;;1.77;0.60;;;;;;;;;;5075324;28;20551;-59
2022/01/06 06:34:43;;;;;;;3.80;0.70;;;;;;;;;;5075275;28;20031;-57
2022/01/06 06:37:08;;;;;;;3.67;1.00;;;;;;;;;;5075997;28;20021;-59
2022/01/06 06:39:34;;;;;;;5.47;1.15;;;;;;;;;;5075370;28;20453;-60
2022/01/06 06:41:59;;;;;;;3.92;1.02;;;;;;;;;;5074736;28;20500;-60
2022/01/06 06:44:24;;;;;;;4.35;0.80;;;;;;;;;;5075140;28;20035;-59
2022/01/06 06:46:51;;;;;;;3.38;1.00;;;;;;;;;;5075205;28;20095;-59
2022/01/06 06:49:16;;;;;;;3.33;0.65;;;;;;;;;;5075746;28;20090;-60
2022/01/06 06:51:41;;;;;;;5.13;1.00;;;;;;;;;;5074744;28;20028;-58
2022/01/06 06:54:07;;;;;;;3.47;0.80;;;;;;;;;;5074624;28;20093;-60
2022/01/06 06:56:32;;;;;;;7.65;1.00;;;;;;;;;;5074886;28;20082;-60
2022/01/06 06:58:57;;;;;;;4.30;0.63;;;;;;;;;;5074875;28;20062;-60
2022/01/06 07:01:22;;;;;;;3.40;1.00;;;;;;;;;;5075084;28;20925;-58
2022/01/06 07:03:47;;;;;;;3.97;0.77;;;;;;;;;;5074441;28;20040;-61
2022/01/06 07:06:13;;;;;;;7.00;1.20;;;;;;;;;;5074722;28;20044;-60
2022/01/06 07:08:38;;;;;;;6.13;0.80;;;;;;;;;;5073323;28;20454;-60
2022/01/06 07:11:03;;;;;;;3.90;0.93;;;;;;;;;;5074065;28;20111;-59
2022/01/06 07:13:29;;;;;;;2.42;0.82;;;;;;;;;;5074796;28;20102;-59
2022/01/06 07:15:54;;;;;;;3.17;1.08;;;;;;;;;;5074424;28;20115;-59
2022/01/06 07:18:20;;;;;;;4.38;0.82;;;;;;;;;;5074376;28;20043;-59
2022/01/06 07:20:45;;;;;;;4.50;1.00;;;;;;;;;;5074483;28;20166;-59
2022/01/06 07:23:11;;;;;;;3.03;1.08;;;;;;;;;;5074100;28;20115;-59
2022/01/06 07:25:36;;;;;;;3.80;0.98;;;;;;;;;;5074529;28;20035;-59
2022/01/06 07:28:02;;;;;;;5.63;1.10;;;;;;;;;;5074051;28;20033;-60
2022/01/06 07:30:30;;;;;;;6.03;1.23;;;;;;;;;;5074369;28;20388;-59
2022/01/06 07:32:55;;;;;;;1.95;0.52;;;;;;;;;;5073931;28;20454;-59
2022/01/06 07:35:21;;;;;;;4.03;0.73;;;;;;;;;;5073768;28;20037;-59
2022/01/06 07:37:47;;;;;;;3.05;0.73;;;;;;;;;;5074243;28;20059;-60
2022/01/06 07:40:13;;;;;;;4.60;0.98;;;;;;;;;;5074314;28;20500;-60
2022/01/06 07:42:38;;;;;;;3.70;0.90;;;;;;;;;;5073965;28;20033;-60
2022/01/06 07:45:04;;;;;;;5.78;1.05;;;;;;;;;;5073840;28;20378;-59
2022/01/06 07:47:31;;;;;;;6.03;1.25;;;;;;;;;;5073760;28;20120;-60
2022/01/06 07:49:57;;;;;;;4.72;1.00;;;;;;;;;;5073959;28;20070;-58
2022/01/06 07:52:22;;;;;;;5.85;1.67;;;;;;;;;;5074117;28;20048;-60
2022/01/06 07:54:48;;;;;;;3.33;0.95;;;;;;;;;;5073408;28;20437;-59
2022/01/06 07:57:14;;;;;;;6.68;1.20;;;;;;;;;;5073759;28;20107;-58
2022/01/06 07:59:39;;;;;;;4.25;1.00;;;;;;;;;;5073611;28;20028;-58
2022/01/06 08:02:04;;;;;;;4.38;1.13;;;;;;;;;;5073616;28;20441;-60
2022/01/06 08:04:30;;;;;;;3.38;1.10;;;;;;;;;;5073683;28;20543;-60
2022/01/06 08:06:55;;;;;;;5.32;1.30;;;;;;;;;;5072221;28;20033;-59
2022/01/06 08:09:20;;;;;;;4.20;0.80;;;;;;;;;;5073552;28;20131;-60
2022/01/06 08:11:45;;;;;;;6.95;1.30;;;;;;;;;;5072661;28;20434;-60
2022/01/06 08:14:10;;;;;;;6.72;1.05;;;;;;;;;;5073213;28;20121;-59
2022/01/06 08:16:36;;;;;;;2.25;0.65;;;;;;;;;;5073863;28;20098;-60
2022/01/06 08:19:02;;;;;;;4.55;1.30;;;;;;;;;;5073233;28;20029;-59
2022/01/06 08:21:27;;;;;;;5.90;1.13;;;;;;;;;;5073351;28;20028;-59
2022/01/06 08:23:52;;;;;;;3.97;1.08;;;;;;;;;;5072149;28;20112;-59
2022/01/06 08:26:17;;;;;;;5.93;1.00;;;;;;;;;;5072957;28;20037;-60
2022/01/06 08:28:46;;;;;;;4.75;1.23;;;;;;;;;;5072673;28;20056;-60
2022/01/06 08:31:13;;;;;;;1.67;0.75;;;;;;;;;;5072958;28;20049;-60
2022/01/06 08:33:38;;;;;;;2.72;0.95;;;;;;;;;;5072960;28;20041;-59
2022/01/06 08:36:03;;;;;;;3.10;1.10;;;;;;;;;;5072930;28;20443;-60
2022/01/06 08:38:29;;;;;;;4.47;1.00;;;;;;;;;;5072958;28;20028;-60
2022/01/06 08:40:54;;;;;;;4.32;1.00;;;;;;;;;;5072948;28;20460;-59
2022/01/06 08:43:20;;;;;;;3.40;1.00;;;;;;;;;;5073326;28;20016;-60
2022/01/06 08:45:45;;;;;;;6.03;1.52;;;;;;;;;;5072680;28;20457;-59
2022/01/06 08:48:10;;;;;;;4.15;0.85;;;;;;;;;;5072651;28;20024;-59
2022/01/06 08:50:36;;;;;;;5.20;1.00;;;;;;;;;;5072858;28;20534;-60
2022/01/06 08:53:01;;;;;;;3.95;0.93;;;;;;;;;;5071897;28;20021;-59
2022/01/06 08:55:27;;;;;;;6.00;1.40;;;;;;;;;;5072227;28;20011;-58
2022/01/06 08:57:53;;;;;;;5.18;0.80;;;;;;;;;;5071820;28;20105;-59
2022/01/06 09:00:18;;;;;;;3.67;0.75;;;;;;;;;;5071877;28;20029;-59
2022/01/06 09:02:43;;;;;;;4.50;1.50;;;;;;;;;;5070755;28;20036;-58
2022/01/06 09:05:10;;;;;;;3.28;0.98;;;;;;;;;;5071494;28;20350;-60
2022/01/06 09:07:35;;;;;;;2.72;0.90;;;;;;;;;;5072382;28;20107;-59
2022/01/06 09:10:01;;;;;;;4.57;0.93;;;;;;;;;;5071540;28;20052;-59
2022/01/06 09:12:27;;;;;;;3.17;1.00;;;;;;;;;;5071444;28;20082;-59
2022/01/06 09:14:52;;;;;;;6.53;1.50;;;;;;;;;;5071293;28;20036;-59
2022/01/06 09:17:17;;;;;;;6.47;1.33;;;;;;;;;;5071624;28;20054;-60
2022/01/06 09:19:43;;;;;;;4.03;1.00;;;;;;;;;;5071913;28;20027;-60
2022/01/06 09:22:08;;;;;;;4.13;1.40;;;;;;;;;;5071370;28;20613;-60
2022/01/06 09:24:33;;;;;;;6.03;1.27;;;;;;;;;;5071377;28;20036;-60
2022/01/06 09:26:59;;;;;;;6.70;1.50;;;;;;;;;;5071669;28;20111;-59
2022/01/06 09:29:24;;;;;;;4.88;1.13;;;;;;;;;;5070152;28;20143;-60
2022/01/06 09:31:49;;;;;;;7.53;1.43;;;;;;;;;;5072680;28;20032;-60
2022/01/06 09:34:14;;;;;;;3.80;1.10;;;;;;;;;;5072460;28;20534;-60
2022/01/06 09:36:40;;;;;;;4.90;1.23;;;;;;;;;;5075455;28;20024;-60
2022/01/06 09:39:06;;;;;;;6.47;2.03;;;;;;;;;;5076512;28;20048;-60
2022/01/06 09:41:31;;;;;;;7.90;1.50;;;;;;;;;;5076441;28;20040;-60
2022/01/06 09:43:57;;;;;;;4.43;1.10;;;;;;;;;;5076155;28;20085;-60
2022/01/06 09:46:23;;;;;;;5.60;2.08;;;;;;;;;;5076492;28;20066;-60
2022/01/06 09:48:49;;;;;;;2.65;1.15;;;;;;;;;;5075272;28;20029;-60
2022/01/06 09:51:15;;;;;;;5.85;1.10;;;;;;;;;;5075921;28;20449;-60
2022/01/06 09:53:40;;;;;;;8.43;1.65;;;;;;;;;;5056296;28;20029;-60
2022/01/06 09:56:05;;;;;;;3.38;1.13;;;;;;;;;;5076022;28;20041;-60
2022/01/06 09:58:31;;;;;;;4.55;1.20;;;;;;;;;;5074767;28;20041;-61
2022/01/06 10:00:56;;;;;;;7.45;1.58;;;;;;;;;;5073499;28;20036;-59
2022/01/06 10:03:32;;;;;;;4.03;1.35;;;;;;;;;;5070522;28;20068;-57
2022/01/06 10:06:07;;;;;;;6.45;1.10;;;;;;;;;;5072622;28;20408;-58
2022/01/06 10:08:33;;;;;;;4.68;1.45;;;;;;;;;;5072677;28;20037;-57
2022/01/06 10:11:31;;;;;;;7.07;1.30;;;;;;;;;;5073064;28;20078;-57
2022/01/06 10:13:59;;;;;;;3.00;1.10;;;;;;;;;;5030212;28;20037;-57
2022/01/06 10:16:25;;;;;;;6.13;0.88;;;;;;;;;;5030503;28;20370;-57
2022/01/06 10:18:53;;;;;;;12.73;1.60;;;;;;;;;;5030606;28;20026;-57
2022/01/06 10:21:18;;;;;;;4.18;1.10;;;;;;;;;;5029774;28;20385;-58
2022/01/06 10:23:44;;;;;;;11.07;2.50;;;;;;;;;;5026650;28;20048;-58
2022/01/06 10:26:13;;;;;;;4.38;1.00;;;;;;;;;;5030369;28;20034;-59
2022/01/06 10:28:38;;;;;;;4.82;1.13;;;;;;;;;;5029592;28;20052;-58
2022/01/06 10:31:06;;;;;;;6.88;1.23;;;;;;;;;;5029166;28;20073;-57
2022/01/06 10:33:39;;;;;;;4.72;1.40;;;;;;;;;;5029878;28;20614;-57
2022/01/06 10:36:08;;;;;;;6.25;1.30;;;;;;;;;;5029018;28;20045;-58
2022/01/06 10:38:33;;;;;;;8.48;1.23;;;;;;;;;;5011402;28;20027;-56
2022/01/06 10:41:15;;;;;;;12.38;2.25;;;;;;;;;;5029949;28;20076;-60
2022/01/06 10:43:41;;;;;;;3.97;1.55;;;;;;;;;;5019593;28;20025;-61
2022/01/06 10:46:07;;;;;;;6.18;1.67;;;;;;;;;;5027892;28;20089;-61
2022/01/06 10:48:33;;;;;;;7.22;1.35;;;;;;;;;;5030828;28;20045;-61
2022/01/06 10:50:58;;;;;;;7.43;1.27;;;;;;;;;;5070780;28;20047;-60
2022/01/06 10:53:24;;;;;;;4.32;1.10;;;;;;;;;;5071152;28;20032;-61
2022/01/06 10:55:49;;;;;;;5.28;1.52;;;;;;;;;;5071402;28;20029;-60
2022/01/06 10:58:18;;;;;;;3.90;1.20;;;;;;;;;;5071657;28;20024;-60
2022/01/06 11:00:48;;;;;;;7.70;1.58;;;;;;;;;;5071260;28;20029;-62
2022/01/06 11:03:14;;;;;;;3.65;0.93;;;;;;;;;;5069119;28;20496;-61
2022/01/06 11:05:41;;;;;;;6.88;1.17;;;;;;;;;;5071162;28;20031;-61
2022/01/06 11:08:06;;;;;;;7.85;1.73;;;;;;;;;;5071390;28;20058;-60
2022/01/06 11:10:37;;;;;;;8.05;1.55;;;;;;;;;;5071655;28;20107;-60
2022/01/06 11:13:03;;;;;;;5.90;1.25;;;;;;;;;;5068505;28;20029;-62
2022/01/06 11:15:29;;;;;;;5.97;1.70;;;;;;;;;;5069383;28;20025;-61
2022/01/06 11:17:55;;;;;;;3.83;1.13;;;;;;;;;;5070325;28;20028;-60
2022/01/06 11:20:24;;;;;;;5.15;1.20;;;;;;;;;;5070042;28;20538;-60
2022/01/06 11:22:54;;;;;;;7.27;1.60;;;;;;;;;;5067078;28;20040;-60
2022/01/06 11:25:48;;;;;;;7.10;2.08;;;;;;;;;;5070847;28;20091;-61
2022/01/06 11:28:15;;;;;;;5.55;1.08;;;;;;;;;;5038523;28;20436;-60
2022/01/06 11:30:41;;;;;;;3.67;0.98;;;;;;;;;;5046731;28;20535;-61
2022/01/06 11:33:06;;;;;;;10.65;1.52;;;;;;;;;;5046556;28;20095;-63
2022/01/06 11:35:46;;;;;;;6.00;1.63;;;;;;;;;;5046662;28;20401;-62
2022/01/06 11:38:11;;;;;;;6.22;1.20;;;;;;;;;;5045517;28;20116;-59
2022/01/06 11:40:39;;;;;;;8.38;1.83;;;;;;;;;;5047893;28;20540;-59
2022/01/06 11:43:04;;;;;;;4.63;1.33;;;;;;;;;;5046925;28;20033;-59
2022/01/06 11:45:29;;;;;;;5.95;1.33;;;;;;;;;;5046673;28;20043;-59
2022/01/06 11:48:01;;;;;;;7.40;1.60;;;;;;;;;;5048381;28;20040;-59
2022/01/06 11:50:27;;;;;;;7.32;1.75;;;;;;;;;;5046521;28;20405;-60
2022/01/06 11:52:53;;;;;;;5.65;1.35;;;;;;;;;;5045975;28;20071;-59
2022/01/06 11:55:19;;;;;;;3.30;1.63;;;;;;;;;;5047086;28;20029;-59
2022/01/06 11:57:45;;;;;;;6.57;1.67;;;;;;;;;;5046023;28;20393;-60
2022/01/06 12:00:26;;;;;;;4.63;1.00;;;;;;;;;;5047162;28;20037;-60
2022/01/06 12:03:11;;;;;;;6.65;1.35;;;;;;;;;;5047377;28;20095;-59
2022/01/06 12:05:48;;;;;;;8.18;1.80;;;;;;;;;;5064401;28;20032;-57
2022/01/06 12:08:14;;;;;;;5.32;1.23;;;;;;;;;;5066237;28;20040;-57
2022/01/06 12:10:43;;;;;;;8.82;2.13;;;;;;;;;;5070472;28;20059;-57
2022/01/06 12:13:08;;;;;;;10.90;1.95;;;;;;;;;;5070372;28;20048;-57
2022/01/06 12:15:44;;;;;;;10.27;2.05;;;;;;;;;;5069117;28;20090;-57
2022/01/06 12:18:09;;;;;;;7.65;2.47;;;;;;;;;;5069271;28;20488;-57
2022/01/06 12:20:34;;;;;;;5.72;1.67;;;;;;;;;;5069221;28;20031;-60
2022/01/06 12:23:00;;;;;;;7.45;2.13;;;;;;;;;;5069292;28;20036;-60
2022/01/06 12:25:27;;;;;;;9.45;1.42;;;;;;;;;;5071782;28;20073;-58
2022/01/06 12:27:53;;;;;;;7.68;1.85;;;;;;;;;;5071125;28;20060;-58
2022/01/06 12:30:19;;;;;;;6.10;1.30;;;;;;;;;;5071555;28;20508;-62
2022/01/06 12:32:59;;;;;;;6.38;1.38;;;;;;;;;;5071256;28;20021;-61
2022/01/06 12:35:40;;;;;;;7.83;1.43;;;;;;;;;;5069685;28;20032;-63
2022/01/06 12:38:05;;;;;;;12.90;1.80;;;;;;;;;;5071857;28;20036;-62
2022/01/06 12:40:35;;;;;;;7.97;1.95;;;;;;;;;;5072516;28;20055;-62
2022/01/06 12:43:12;;;;;;;7.95;1.45;;;;;;;;;;5071456;28;20024;-60
2022/01/06 12:45:37;;;;;;;6.65;1.50;;;;;;;;;;5069267;28;20111;-61
2022/01/06 12:48:02;;;;;;;6.13;1.50;;;;;;;;;;5071581;28;20080;-60
2022/01/06 12:50:27;;;;;;;6.47;1.48;;;;;;;;;;5071067;28;20048;-60
2022/01/06 12:52:53;;;;;;;6.30;1.50;;;;;;;;;;5071033;28;20048;-59
2022/01/06 12:55:18;;;;;;;11.27;2.35;;;;;;;;;;5071638;28;20027;-61
2022/01/06 12:57:49;;;;;;;6.95;1.88;;;;;;;;;;5071343;28;20187;-63
2022/01/06 13:00:14;;;;;;;;;;;;;;;;;;5072057;28;20036;-62
2022/01/06 13:02:39;;;;;;;10.30;1.85;;;;;;;;;;5069372;28;19966;-62
2022/01/06 13:05:05;;;;;;;5.32;1.50;;;;;;;;;;5071516;28;20032;-63
2022/01/06 13:07:30;;;;;;;8.65;1.77;;;;;;;;;;5071765;28;20032;-62
2022/01/06 13:09:57;;;;;;;10.27;2.60;;;;;;;;;;5071021;28;20396;-63
2022/01/06 13:12:24;;;;;;;10.00;1.50;;;;;;;;;;5069568;28;20426;-63
2022/01/06 13:14:52;;;;;;;4.63;1.48;;;;;;;;;;5071270;28;20028;-61
2022/01/06 13:17:17;;;;;;;9.95;1.85;;;;;;;;;;5070724;28;20029;-61
2022/01/06 13:19:53;;;;;;;7.80;1.63;;;;;;;;;;5071196;28;20032;-60
2022/01/06 13:25:28;;;;;;;8.32;1.75;;;;;;;;;;5007000;28;20042;-61
2022/01/06 13:27:56;;;;;;;5.20;1.42;;;;;;;;;;5008139;28;20026;-62
2022/01/06 13:30:29;;;;;;;6.75;1.80;;;;;;;;;;5004394;28;20057;-62
2022/01/06 13:32:55;;;;;;;6.50;1.38;;;;;;;;;;5007063;28;20022;-61
2022/01/06 13:35:20;;;;;;;6.15;1.48;;;;;;;;;;5008399;28;20482;-61
2022/01/06 13:37:45;;;;;;;7.22;1.33;;;;;;;;;;5008188;28;20045;-61
2022/01/06 13:40:11;;;;;;;12.90;1.85;;;;;;;;;;5009297;28;20042;-61
2022/01/06 13:42:38;;;;;;;6.63;1.63;;;;;;;;;;5004620;28;20038;-63
2022/01/06 13:45:10;;;;;;;5.80;1.73;;;;;;;;;;5005554;28;20088;-64
2022/01/06 13:52:59;;;;;;;5.10;1.17;;;;;;;;;;5005674;28;20095;-62
2022/01/06 13:55:24;;;;;;;6.55;1.67;;;;;;;;;;5008446;28;20030;-62
2022/01/06 13:57:50;;;;;;;6.03;1.60;;;;;;;;;;5005353;28;20105;-61
2022/01/06 14:00:18;;;;;;;6.15;1.13;;;;;;;;;;5004484;28;20088;-62
2022/01/06 14:02:44;;;;;;;5.68;1.77;;;;;;;;;;5041209;28;20512;-62
2022/01/06 14:05:11;;;;;;;6.03;1.63;;;;;;;;;;5067646;28;20033;-61
2022/01/06 14:07:36;;;;;;;4.30;1.50;;;;;;;;;;5066620;28;20044;-61
2022/01/06 14:10:05;;;;;;;5.57;1.27;;;;;;;;;;5068255;28;20032;-62
2022/01/06 14:12:30;;;;;;;4.00;1.40;;;;;;;;;;5067772;28;20061;-60
2022/01/06 14:14:55;;;;;;;5.38;1.30;;;;;;;;;;5068095;28;20060;-60
2022/01/06 14:17:20;;;;;;;7.65;2.22;;;;;;;;;;5067895;28;20037;-61
2022/01/06 14:19:46;;;;;;;5.30;1.83;;;;;;;;;;5067794;28;20074;-59
2022/01/06 14:22:11;;;;;;;4.67;1.33;;;;;;;;;;5071700;28;20136;-63
2022/01/06 14:24:36;;;;;;;5.57;1.55;;;;;;;;;;5071616;28;20495;-61
2022/01/06 14:27:02;;;;;;;8.43;1.80;;;;;;;;;;5072104;28;20059;-60
2022/01/06 14:29:28;;;;;;;7.78;1.20;;;;;;;;;;5066524;28;20505;-60
2022/01/06 14:31:54;;;;;;;5.15;1.50;;;;;;;;;;5063539;28;20040;-60
2022/01/06 14:34:20;;;;;;;7.55;1.27;;;;;;;;;;5066387;28;20055;-61
2022/01/06 14:36:45;;;;;;;8.93;1.50;;;;;;;;;;5068384;28;20063;-60
2022/01/06 14:39:11;;;;;;;5.28;1.48;;;;;;;;;;5067694;28;20056;-60
2022/01/06 14:41:36;;;;;;;5.40;1.40;;;;;;;;;;5068125;28;20485;-60
2022/01/06 14:44:03;;;;;;;6.20;2.05;;;;;;;;;;5066903;28;20086;-59
2022/01/06 14:46:28;;;;;;;3.83;1.40;;;;;;;;;;5067506;28;20027;-59
2022/01/06 14:48:53;;;;;;;4.35;1.40;;;;;;;;;;5067827;28;20032;-59
2022/01/06 14:51:20;;;;;;;4.35;1.50;;;;;;;;;;5068467;27;20025;-63
2022/01/06 14:53:45;;;;;;;6.80;1.50;;;;;;;;;;5068042;28;20520;-62